• Join FlightAware (Why Join?)
  • Login
  • US Flag 
05:24PM EDT


 

Airport Tracker/Info


-or-


 

Live Flight TrackerFlight Track Log ✈ N137TK ✈ 01-May-2013 ✈ KMQY - KDKX

Flight Track Log - Related Links

Times and Time Zones

All times are in EDT time to prevent confusion due to time zone crossing. See the N137TK flight status page for this flight to view local times or setup timezone preferences in your user account.

Time Position Orientation Groundspeed Altitude Reporting Facility
EDT Latitude Longitude Course Direction KTS MPH feet Rate Location/Type
01:13PM 36.0000 -86.5167 180° South 135 155 1,000  Level Nashville TRACON
01:14PM 35.9500 -86.5167 180° South 163 188 3,200 2,220 Climbing Nashville TRACON
01:15PM 35.9500 -86.4500 90° East 158 182 5,900 2,280 Climbing Nashville TRACON
01:16PM 35.9667 -86.4167 58° Northeast 152 175 7,400 2,040 Climbing Nashville TRACON
01:17PM 35.9667 -86.3667 90° East 156 180 9,400 1,920 Climbing Nashville TRACON
01:18PM 35.9833 -86.3000 73° East 164 189 11,800 1,560 Climbing Nashville TRACON
01:19PM 36.0000 -86.2333 73° East 186 214 13,000 600 Climbing Nashville TRACON
01:20PM 36.0025 -86.1722 87° East 234 269 13,000  Level Memphis Center
01:21PM 36.0164 -86.0894 78° East 243 280 13,000  Level Memphis Center
01:22PM 36.0156 -86.0047 91° East 243 280 13,000  Level Memphis Center
01:23PM 36.0144 -85.9175 91° East 243 280 13,000  Level Memphis Center
01:24PM 36.0131 -85.8228 91° East 248 285 13,000  Level Memphis Center
01:25PM 36.0100 -85.7383 93° East 253 291 13,000  Level Memphis Center
01:28PM 35.9906 -85.5528 97° East 251 289 13,000  Level Atlanta Center
01:29PM 35.9769 -85.4706 102° East 251 289 13,000  Level Atlanta Center
01:30PM 35.9675 -85.3856 98° East 251 289 13,000 -60 Level Atlanta Center
01:31PM 35.9642 -85.3011 93° East 246 283 12,900 -60 Descending Atlanta Center
01:32PM 35.9631 -85.2164 91° East 246 283 12,900  Level Atlanta Center
01:33PM 35.9639 -85.1292 89° East 246 283 13,000  Climbing Atlanta Center
01:34PM 35.9644 -85.0342 90° East 246 283 13,000  Level Atlanta Center
01:35PM 35.9631 -84.9469 91° East 251 289 13,000 -360 Level Atlanta Center
01:36PM 35.9658 -84.8572 88° East 251 289 12,300 -720 Descending Atlanta Center
01:37PM 35.9644 -84.7672 91° East 251 289 11,600 -660 Descending Atlanta Center
01:38PM 35.9647 -84.6803 90° East 251 289 11,000 -300 Descending Atlanta Center
01:39PM 35.9653 -84.5956 90° East 251 289 11,000 -360 Level Atlanta Center
01:40PM 35.9636 -84.5133 91° East 251 289 10,300 -900 Descending Atlanta Center
01:41PM 35.9597 -84.4286 93° East 251 289 9,200 -1,140 Descending Atlanta Center
01:42PM 35.9556 -84.3517 94° East 239 275 8,100 -1,140 Descending Atlanta Center
01:43PM 35.9539 -84.2697 91° East 234 269 7,000 -1,140 Descending Atlanta Center
01:44PM 35.9497 -84.1900 94° East 234 269 5,900 -1,200 Descending Atlanta Center
01:45PM 35.9456 -84.1158 94° East 234 269 4,700 -1,200 Descending Atlanta Center
01:47PM 35.9624 -83.9913 102° East  Level FlightAware Approximate
01:54PM 35.9500 -83.8667 90° East  Level FlightAware Approximate
01:55PM 35.9638 -83.8737 90° East  Level Estimated
01:56PM 35.9638 -83.8737 90° East  Level Estimated
01:57PM 35.9638 -83.8737 90° East  Level Estimated